sensor_id;sensor_type;location;lat;lon;timestamp;P1;durP1;ratioP1;P2;durP2;ratioP2
62102;SDS011;48077;48.104;11.702;2023-09-19T00:00:17;262.23;;;175.57;;
62102;SDS011;48077;48.104;11.702;2023-09-19T00:07:42;280.08;;;188.20;;
62102;SDS011;48077;48.104;11.702;2023-09-19T00:10:06;277.25;;;184.68;;
62102;SDS011;48077;48.104;11.702;2023-09-19T00:12:32;268.27;;;179.45;;
62102;SDS011;48077;48.104;11.702;2023-09-19T00:14:58;268.90;;;179.43;;
62102;SDS011;48077;48.104;11.702;2023-09-19T00:17:23;266.10;;;178.95;;
62102;SDS011;48077;48.104;11.702;2023-09-19T00:19:47;265.80;;;178.55;;
62102;SDS011;48077;48.104;11.702;2023-09-19T00:22:14;267.15;;;178.90;;
62102;SDS011;48077;48.104;11.702;2023-09-19T00:24:39;262.05;;;176.85;;
62102;SDS011;48077;48.104;11.702;2023-09-19T00:27:03;262.98;;;176.45;;
62102;SDS011;48077;48.104;11.702;2023-09-19T00:29:28;260.38;;;174.73;;
62102;SDS011;48077;48.104;11.702;2023-09-19T00:31:52;265.63;;;177.85;;
62102;SDS011;48077;48.104;11.702;2023-09-19T00:34:17;262.25;;;175.73;;
62102;SDS011;48077;48.104;11.702;2023-09-19T00:36:40;264.88;;;178.07;;
62102;SDS011;48077;48.104;11.702;2023-09-19T00:39:06;261.90;;;175.35;;
62102;SDS011;48077;48.104;11.702;2023-09-19T00:41:31;267.13;;;177.48;;
62102;SDS011;48077;48.104;11.702;2023-09-19T00:43:55;268.77;;;178.43;;
62102;SDS011;48077;48.104;11.702;2023-09-19T00:46:18;269.25;;;180.10;;
62102;SDS011;48077;48.104;11.702;2023-09-19T00:48:42;266.38;;;177.77;;
62102;SDS011;48077;48.104;11.702;2023-09-19T00:51:06;274.00;;;181.55;;
62102;SDS011;48077;48.104;11.702;2023-09-19T00:53:30;275.05;;;181.93;;
62102;SDS011;48077;48.104;11.702;2023-09-19T00:55:54;274.85;;;180.75;;
62102;SDS011;48077;48.104;11.702;2023-09-19T00:58:19;272.02;;;180.65;;
62102;SDS011;48077;48.104;11.702;2023-09-19T01:00:43;269.80;;;180.75;;
62102;SDS011;48077;48.104;11.702;2023-09-19T01:03:07;273.38;;;182.57;;
62102;SDS011;48077;48.104;11.702;2023-09-19T01:05:35;275.27;;;181.70;;
62102;SDS011;48077;48.104;11.702;2023-09-19T01:07:59;276.50;;;182.50;;
62102;SDS011;48077;48.104;11.702;2023-09-19T01:10:22;272.20;;;180.15;;
62102;SDS011;48077;48.104;11.702;2023-09-19T01:12:54;277.58;;;183.75;;
62102;SDS011;48077;48.104;11.702;2023-09-19T01:15:45;283.20;;;188.05;;
62102;SDS011;48077;48.104;11.702;2023-09-19T01:23:24;279.75;;;185.43;;
62102;SDS011;48077;48.104;11.702;2023-09-19T01:29:26;293.25;;;192.98;;
62102;SDS011;48077;48.104;11.702;2023-09-19T01:32:03;293.67;;;193.23;;
62102;SDS011;48077;48.104;11.702;2023-09-19T01:34:27;291.10;;;191.27;;
62102;SDS011;48077;48.104;11.702;2023-09-19T01:37:10;296.23;;;193.80;;
62102;SDS011;48077;48.104;11.702;2023-09-19T01:39:33;292.38;;;192.75;;
62102;SDS011;48077;48.104;11.702;2023-09-19T01:42:05;299.65;;;195.85;;
62102;SDS011;48077;48.104;11.702;2023-09-19T01:47:19;310.08;;;200.52;;
62102;SDS011;48077;48.104;11.702;2023-09-19T01:49:55;313.08;;;202.75;;
62102;SDS011;48077;48.104;11.702;2023-09-19T01:52:30;319.23;;;205.27;;
62102;SDS011;48077;48.104;11.702;2023-09-19T01:54:59;330.58;;;208.32;;
62102;SDS011;48077;48.104;11.702;2023-09-19T01:57:33;348.90;;;218.60;;
62102;SDS011;48077;48.104;11.702;2023-09-19T02:00:07;385.92;;;234.05;;
62102;SDS011;48077;48.104;11.702;2023-09-19T02:02:38;369.02;;;226.65;;
62102;SDS011;48077;48.104;11.702;2023-09-19T02:07:27;371.85;;;230.50;;
62102;SDS011;48077;48.104;11.702;2023-09-19T02:09:54;348.67;;;219.73;;
62102;SDS011;48077;48.104;11.702;2023-09-19T02:12:18;348.83;;;217.88;;
62102;SDS011;48077;48.104;11.702;2023-09-19T02:14:41;341.63;;;215.13;;
62102;SDS011;48077;48.104;11.702;2023-09-19T02:17:04;333.00;;;209.88;;
62102;SDS011;48077;48.104;11.702;2023-09-19T02:19:32;324.30;;;206.33;;
62102;SDS011;48077;48.104;11.702;2023-09-19T02:21:56;321.38;;;205.77;;
62102;SDS011;48077;48.104;11.702;2023-09-19T02:24:20;322.05;;;205.85;;
62102;SDS011;48077;48.104;11.702;2023-09-19T02:26:43;319.58;;;204.05;;
62102;SDS011;48077;48.104;11.702;2023-09-19T02:29:06;316.27;;;202.23;;
62102;SDS011;48077;48.104;11.702;2023-09-19T02:31:30;315.75;;;202.10;;
62102;SDS011;48077;48.104;11.702;2023-09-19T02:33:54;311.73;;;201.30;;
62102;SDS011;48077;48.104;11.702;2023-09-19T02:36:17;318.75;;;204.13;;
62102;SDS011;48077;48.104;11.702;2023-09-19T02:38:40;308.27;;;198.48;;
62102;SDS011;48077;48.104;11.702;2023-09-19T02:41:04;316.52;;;202.93;;
62102;SDS011;48077;48.104;11.702;2023-09-19T02:43:27;334.80;;;211.45;;
62102;SDS011;48077;48.104;11.702;2023-09-19T02:45:50;341.98;;;214.27;;
62102;SDS011;48077;48.104;11.702;2023-09-19T02:48:16;367.27;;;225.75;;
62102;SDS011;48077;48.104;11.702;2023-09-19T02:50:39;576.58;;;322.58;;
62102;SDS011;48077;48.104;11.702;2023-09-19T02:53:03;379.08;;;230.75;;
62102;SDS011;48077;48.104;11.702;2023-09-19T02:55:27;333.42;;;211.20;;
62102;SDS011;48077;48.104;11.702;2023-09-19T02:57:51;315.52;;;203.05;;
62102;SDS011;48077;48.104;11.702;2023-09-19T03:00:18;308.15;;;198.10;;
62102;SDS011;48077;48.104;11.702;2023-09-19T03:02:45;295.73;;;192.82;;
62102;SDS011;48077;48.104;11.702;2023-09-19T03:05:09;293.25;;;191.90;;
62102;SDS011;48077;48.104;11.702;2023-09-19T03:07:34;285.00;;;187.57;;
62102;SDS011;48077;48.104;11.702;2023-09-19T03:09:57;283.88;;;186.40;;
62102;SDS011;48077;48.104;11.702;2023-09-19T03:12:21;284.30;;;186.63;;
62102;SDS011;48077;48.104;11.702;2023-09-19T03:14:44;272.15;;;180.50;;
62102;SDS011;48077;48.104;11.702;2023-09-19T03:17:07;274.42;;;182.88;;
62102;SDS011;48077;48.104;11.702;2023-09-19T03:19:32;265.10;;;176.57;;
62102;SDS011;48077;48.104;11.702;2023-09-19T03:21:56;270.88;;;181.13;;
62102;SDS011;48077;48.104;11.702;2023-09-19T03:24:20;265.45;;;178.50;;
62102;SDS011;48077;48.104;11.702;2023-09-19T03:26:44;263.23;;;177.52;;
62102;SDS011;48077;48.104;11.702;2023-09-19T03:29:08;264.77;;;177.52;;
62102;SDS011;48077;48.104;11.702;2023-09-19T03:31:33;266.67;;;178.77;;
62102;SDS011;48077;48.104;11.702;2023-09-19T03:33:56;259.38;;;173.55;;
62102;SDS011;48077;48.104;11.702;2023-09-19T03:36:20;262.15;;;176.73;;
62102;SDS011;48077;48.104;11.702;2023-09-19T03:38:43;262.10;;;174.98;;
62102;SDS011;48077;48.104;11.702;2023-09-19T03:41:06;260.40;;;175.27;;
62102;SDS011;48077;48.104;11.702;2023-09-19T03:43:31;264.92;;;176.82;;
62102;SDS011;48077;48.104;11.702;2023-09-19T03:45:55;264.10;;;176.82;;
62102;SDS011;48077;48.104;11.702;2023-09-19T03:48:18;259.77;;;175.15;;
62102;SDS011;48077;48.104;11.702;2023-09-19T03:50:42;260.48;;;173.93;;
62102;SDS011;48077;48.104;11.702;2023-09-19T03:53:06;262.08;;;176.40;;
62102;SDS011;48077;48.104;11.702;2023-09-19T03:55:30;257.90;;;173.27;;
62102;SDS011;48077;48.104;11.702;2023-09-19T03:57:53;260.42;;;174.10;;
62102;SDS011;48077;48.104;11.702;2023-09-19T04:00:17;255.65;;;172.38;;
62102;SDS011;48077;48.104;11.702;2023-09-19T04:02:44;256.40;;;173.77;;
62102;SDS011;48077;48.104;11.702;2023-09-19T04:05:09;257.02;;;173.10;;
62102;SDS011;48077;48.104;11.702;2023-09-19T04:07:33;259.60;;;175.15;;
62102;SDS011;48077;48.104;11.702;2023-09-19T04:09:57;262.15;;;174.98;;
62102;SDS011;48077;48.104;11.702;2023-09-19T04:12:20;263.33;;;176.18;;
62102;SDS011;48077;48.104;11.702;2023-09-19T04:14:44;259.25;;;174.85;;
62102;SDS011;48077;48.104;11.702;2023-09-19T04:17:07;263.00;;;175.90;;
62102;SDS011;48077;48.104;11.702;2023-09-19T04:19:31;260.58;;;175.18;;
62102;SDS011;48077;48.104;11.702;2023-09-19T04:21:54;266.33;;;177.40;;
62102;SDS011;48077;48.104;11.702;2023-09-19T04:24:18;261.92;;;176.13;;
62102;SDS011;48077;48.104;11.702;2023-09-19T04:26:42;266.08;;;176.40;;
62102;SDS011;48077;48.104;11.702;2023-09-19T04:29:05;256.73;;;173.23;;
62102;SDS011;48077;48.104;11.702;2023-09-19T04:31:29;261.98;;;175.15;;
62102;SDS011;48077;48.104;11.702;2023-09-19T04:33:53;257.58;;;173.50;;
62102;SDS011;48077;48.104;11.702;2023-09-19T04:36:16;256.42;;;173.45;;
62102;SDS011;48077;48.104;11.702;2023-09-19T04:38:40;254.10;;;171.95;;
62102;SDS011;48077;48.104;11.702;2023-09-19T04:41:03;264.17;;;175.95;;
62102;SDS011;48077;48.104;11.702;2023-09-19T04:43:27;263.60;;;175.57;;
62102;SDS011;48077;48.104;11.702;2023-09-19T04:45:51;260.92;;;175.02;;
62102;SDS011;48077;48.104;11.702;2023-09-19T04:48:18;258.75;;;173.65;;
62102;SDS011;48077;48.104;11.702;2023-09-19T04:50:44;264.10;;;176.90;;
62102;SDS011;48077;48.104;11.702;2023-09-19T04:53:08;263.45;;;176.05;;
62102;SDS011;48077;48.104;11.702;2023-09-19T04:55:31;264.75;;;177.10;;
62102;SDS011;48077;48.104;11.702;2023-09-19T04:57:55;272.30;;;178.73;;
62102;SDS011;48077;48.104;11.702;2023-09-19T05:00:19;265.02;;;177.68;;
62102;SDS011;48077;48.104;11.702;2023-09-19T05:02:49;266.33;;;177.85;;
62102;SDS011;48077;48.104;11.702;2023-09-19T05:05:13;266.15;;;178.48;;
62102;SDS011;48077;48.104;11.702;2023-09-19T05:07:38;273.25;;;181.80;;
62102;SDS011;48077;48.104;11.702;2023-09-19T05:10:02;278.67;;;184.75;;
62102;SDS011;48077;48.104;11.702;2023-09-19T05:12:30;281.48;;;184.60;;
62102;SDS011;48077;48.104;11.702;2023-09-19T05:14:53;281.00;;;185.30;;
62102;SDS011;48077;48.104;11.702;2023-09-19T05:17:16;279.83;;;184.68;;
62102;SDS011;48077;48.104;11.702;2023-09-19T05:19:40;283.75;;;186.40;;
62102;SDS011;48077;48.104;11.702;2023-09-19T05:22:03;276.67;;;183.50;;
62102;SDS011;48077;48.104;11.702;2023-09-19T05:24:27;286.35;;;187.60;;
62102;SDS011;48077;48.104;11.702;2023-09-19T05:26:50;293.08;;;190.32;;
62102;SDS011;48077;48.104;11.702;2023-09-19T05:29:14;290.50;;;188.85;;
62102;SDS011;48077;48.104;11.702;2023-09-19T05:31:37;297.80;;;193.95;;
62102;SDS011;48077;48.104;11.702;2023-09-19T05:34:03;299.70;;;194.23;;
62102;SDS011;48077;48.104;11.702;2023-09-19T05:36:27;303.83;;;197.07;;
62102;SDS011;48077;48.104;11.702;2023-09-19T05:38:52;306.73;;;196.90;;
62102;SDS011;48077;48.104;11.702;2023-09-19T05:41:16;319.67;;;203.27;;
62102;SDS011;48077;48.104;11.702;2023-09-19T05:43:40;317.50;;;203.15;;
62102;SDS011;48077;48.104;11.702;2023-09-19T05:46:04;321.27;;;203.95;;
62102;SDS011;48077;48.104;11.702;2023-09-19T05:48:27;324.30;;;205.82;;
62102;SDS011;48077;48.104;11.702;2023-09-19T05:50:51;338.52;;;211.82;;
62102;SDS011;48077;48.104;11.702;2023-09-19T05:53:14;330.40;;;208.45;;
62102;SDS011;48077;48.104;11.702;2023-09-19T05:55:38;346.45;;;215.85;;
62102;SDS011;48077;48.104;11.702;2023-09-19T05:58:01;348.85;;;216.82;;
62102;SDS011;48077;48.104;11.702;2023-09-19T06:00:26;358.77;;;219.65;;
62102;SDS011;48077;48.104;11.702;2023-09-19T06:02:55;387.40;;;233.70;;
62102;SDS011;48077;48.104;11.702;2023-09-19T06:05:21;453.25;;;260.30;;
62102;SDS011;48077;48.104;11.702;2023-09-19T06:07:45;580.60;;;318.40;;
62102;SDS011;48077;48.104;11.702;2023-09-19T06:10:09;377.42;;;228.63;;
62102;SDS011;48077;48.104;11.702;2023-09-19T06:12:33;330.33;;;208.38;;
62102;SDS011;48077;48.104;11.702;2023-09-19T06:15:00;308.77;;;198.13;;
62102;SDS011;48077;48.104;11.702;2023-09-19T06:17:23;293.48;;;190.25;;
62102;SDS011;48077;48.104;11.702;2023-09-19T06:19:47;290.13;;;188.85;;
62102;SDS011;48077;48.104;11.702;2023-09-19T06:22:10;274.60;;;181.63;;
62102;SDS011;48077;48.104;11.702;2023-09-19T06:24:33;272.98;;;179.75;;
62102;SDS011;48077;48.104;11.702;2023-09-19T06:26:57;268.98;;;177.85;;
62102;SDS011;48077;48.104;11.702;2023-09-19T06:29:24;270.65;;;178.23;;
62102;SDS011;48077;48.104;11.702;2023-09-19T06:31:47;266.52;;;176.95;;
62102;SDS011;48077;48.104;11.702;2023-09-19T06:34:11;267.42;;;176.93;;
62102;SDS011;48077;48.104;11.702;2023-09-19T06:36:34;259.92;;;174.48;;
62102;SDS011;48077;48.104;11.702;2023-09-19T06:38:58;258.23;;;173.27;;
62102;SDS011;48077;48.104;11.702;2023-09-19T06:41:22;259.27;;;173.18;;
62102;SDS011;48077;48.104;11.702;2023-09-19T06:43:47;258.77;;;171.82;;
62102;SDS011;48077;48.104;11.702;2023-09-19T06:46:11;250.32;;;168.32;;
62102;SDS011;48077;48.104;11.702;2023-09-19T06:48:36;253.45;;;168.88;;
62102;SDS011;48077;48.104;11.702;2023-09-19T06:51:00;244.05;;;164.52;;
62102;SDS011;48077;48.104;11.702;2023-09-19T06:53:24;246.38;;;166.00;;
62102;SDS011;48077;48.104;11.702;2023-09-19T06:55:48;240.65;;;162.32;;
62102;SDS011;48077;48.104;11.702;2023-09-19T06:58:12;236.05;;;159.98;;
62102;SDS011;48077;48.104;11.702;2023-09-19T07:00:36;235.43;;;159.40;;
62102;SDS011;48077;48.104;11.702;2023-09-19T07:03:01;228.63;;;157.05;;
62102;SDS011;48077;48.104;11.702;2023-09-19T07:05:27;231.25;;;158.52;;
62102;SDS011;48077;48.104;11.702;2023-09-19T07:07:50;227.82;;;156.45;;
62102;SDS011;48077;48.104;11.702;2023-09-19T07:10:14;231.00;;;157.02;;
62102;SDS011;48077;48.104;11.702;2023-09-19T07:12:37;228.88;;;156.75;;
62102;SDS011;48077;48.104;11.702;2023-09-19T07:15:01;232.75;;;158.25;;
62102;SDS011;48077;48.104;11.702;2023-09-19T07:17:24;227.70;;;155.82;;
62102;SDS011;48077;48.104;11.702;2023-09-19T07:19:48;228.88;;;156.60;;
62102;SDS011;48077;48.104;11.702;2023-09-19T07:22:11;225.35;;;154.75;;
62102;SDS011;48077;48.104;11.702;2023-09-19T07:24:36;221.60;;;154.00;;
62102;SDS011;48077;48.104;11.702;2023-09-19T07:27:00;226.27;;;155.20;;
62102;SDS011;48077;48.104;11.702;2023-09-19T07:29:26;222.65;;;154.13;;
62102;SDS011;48077;48.104;11.702;2023-09-19T07:31:49;219.10;;;152.85;;
62102;SDS011;48077;48.104;11.702;2023-09-19T07:34:12;219.10;;;152.30;;
62102;SDS011;48077;48.104;11.702;2023-09-19T07:36:37;213.85;;;150.13;;
62102;SDS011;48077;48.104;11.702;2023-09-19T07:39:01;218.30;;;151.20;;
62102;SDS011;48077;48.104;11.702;2023-09-19T07:41:24;218.65;;;152.27;;
62102;SDS011;48077;48.104;11.702;2023-09-19T07:43:48;216.27;;;150.55;;
62102;SDS011;48077;48.104;11.702;2023-09-19T07:46:11;214.55;;;150.75;;
62102;SDS011;48077;48.104;11.702;2023-09-19T07:48:35;219.23;;;152.70;;
62102;SDS011;48077;48.104;11.702;2023-09-19T07:51:02;217.13;;;151.98;;
62102;SDS011;48077;48.104;11.702;2023-09-19T07:53:26;217.80;;;151.38;;
62102;SDS011;48077;48.104;11.702;2023-09-19T07:55:50;226.05;;;155.27;;
62102;SDS011;48077;48.104;11.702;2023-09-19T07:58:18;217.95;;;150.90;;
62102;SDS011;48077;48.104;11.702;2023-09-19T08:00:45;216.20;;;150.60;;
62102;SDS011;48077;48.104;11.702;2023-09-19T08:03:09;219.45;;;152.73;;
62102;SDS011;48077;48.104;11.702;2023-09-19T08:05:37;212.60;;;149.27;;
62102;SDS011;48077;48.104;11.702;2023-09-19T08:08:01;225.98;;;154.57;;
62102;SDS011;48077;48.104;11.702;2023-09-19T08:10:25;213.18;;;148.98;;
62102;SDS011;48077;48.104;11.702;2023-09-19T08:12:50;210.07;;;148.30;;
62102;SDS011;48077;48.104;11.702;2023-09-19T08:15:19;218.30;;;151.57;;
62102;SDS011;48077;48.104;11.702;2023-09-19T08:17:43;208.82;;;147.43;;
62102;SDS011;48077;48.104;11.702;2023-09-19T08:20:06;202.75;;;145.35;;
62102;SDS011;48077;48.104;11.702;2023-09-19T08:22:31;213.02;;;149.07;;
62102;SDS011;48077;48.104;11.702;2023-09-19T08:24:55;212.60;;;148.70;;
62102;SDS011;48077;48.104;11.702;2023-09-19T08:27:19;209.43;;;147.57;;
62102;SDS011;48077;48.104;11.702;2023-09-19T08:29:42;204.00;;;146.02;;
62102;SDS011;48077;48.104;11.702;2023-09-19T08:32:06;209.98;;;147.15;;
62102;SDS011;48077;48.104;11.702;2023-09-19T08:34:29;209.65;;;147.52;;
62102;SDS011;48077;48.104;11.702;2023-09-19T08:36:55;205.48;;;146.02;;
62102;SDS011;48077;48.104;11.702;2023-09-19T08:39:19;203.48;;;145.43;;
62102;SDS011;48077;48.104;11.702;2023-09-19T08:41:42;202.00;;;142.90;;
62102;SDS011;48077;48.104;11.702;2023-09-19T08:44:06;201.50;;;143.07;;
62102;SDS011;48077;48.104;11.702;2023-09-19T08:46:30;204.75;;;145.65;;
62102;SDS011;48077;48.104;11.702;2023-09-19T08:48:58;201.73;;;143.90;;
62102;SDS011;48077;48.104;11.702;2023-09-19T08:51:30;202.93;;;144.32;;
62102;SDS011;48077;48.104;11.702;2023-09-19T08:54:10;205.52;;;145.88;;
62102;SDS011;48077;48.104;11.702;2023-09-19T08:56:39;199.20;;;143.05;;
62102;SDS011;48077;48.104;11.702;2023-09-19T08:59:06;187.30;;;138.20;;
62102;SDS011;48077;48.104;11.702;2023-09-19T09:01:30;191.52;;;139.80;;
62102;SDS011;48077;48.104;11.702;2023-09-19T09:03:55;190.07;;;139.05;;
62102;SDS011;48077;48.104;11.702;2023-09-19T09:06:22;185.35;;;137.10;;
62102;SDS011;48077;48.104;11.702;2023-09-19T09:08:47;186.25;;;137.25;;
62102;SDS011;48077;48.104;11.702;2023-09-19T09:11:13;189.18;;;139.02;;
62102;SDS011;48077;48.104;11.702;2023-09-19T09:13:37;188.90;;;138.98;;
62102;SDS011;48077;48.104;11.702;2023-09-19T09:16:04;183.85;;;136.30;;
62102;SDS011;48077;48.104;11.702;2023-09-19T09:18:28;184.77;;;136.77;;
62102;SDS011;48077;48.104;11.702;2023-09-19T09:20:52;182.52;;;135.25;;
62102;SDS011;48077;48.104;11.702;2023-09-19T09:23:16;178.70;;;133.80;;
62102;SDS011;48077;48.104;11.702;2023-09-19T09:25:52;173.10;;;131.40;;
62102;SDS011;48077;48.104;11.702;2023-09-19T09:28:20;176.50;;;132.27;;
62102;SDS011;48077;48.104;11.702;2023-09-19T09:30:45;181.20;;;133.88;;
62102;SDS011;48077;48.104;11.702;2023-09-19T09:33:12;176.25;;;131.90;;
62102;SDS011;48077;48.104;11.702;2023-09-19T09:35:37;167.73;;;129.27;;
62102;SDS011;48077;48.104;11.702;2023-09-19T09:38:16;179.65;;;133.98;;
62102;SDS011;48077;48.104;11.702;2023-09-19T09:40:48;175.65;;;132.98;;
62102;SDS011;48077;48.104;11.702;2023-09-19T09:43:33;173.77;;;131.70;;
62102;SDS011;48077;48.104;11.702;2023-09-19T09:46:32;177.95;;;134.43;;
62102;SDS011;48077;48.104;11.702;2023-09-19T09:51:35;189.88;;;138.27;;
62102;SDS011;48077;48.104;11.702;2023-09-19T09:56:57;181.05;;;134.48;;
62102;SDS011;48077;48.104;11.702;2023-09-19T09:59:47;189.23;;;138.70;;
62102;SDS011;48077;48.104;11.702;2023-09-19T10:02:10;179.45;;;134.48;;
62102;SDS011;48077;48.104;11.702;2023-09-19T10:04:36;178.40;;;132.60;;
62102;SDS011;48077;48.104;11.702;2023-09-19T10:07:07;173.60;;;132.05;;
62102;SDS011;48077;48.104;11.702;2023-09-19T10:09:46;175.63;;;132.30;;
62102;SDS011;48077;48.104;11.702;2023-09-19T10:12:12;177.88;;;133.43;;
62102;SDS011;48077;48.104;11.702;2023-09-19T10:14:39;173.90;;;132.15;;
62102;SDS011;48077;48.104;11.702;2023-09-19T10:17:05;180.32;;;134.95;;
62102;SDS011;48077;48.104;11.702;2023-09-19T10:19:42;186.95;;;137.25;;
62102;SDS011;48077;48.104;11.702;2023-09-19T10:22:13;187.80;;;138.20;;
62102;SDS011;48077;48.104;11.702;2023-09-19T10:24:39;179.82;;;135.00;;
62102;SDS011;48077;48.104;11.702;2023-09-19T10:27:04;170.55;;;130.23;;
62102;SDS011;48077;48.104;11.702;2023-09-19T10:29:32;171.05;;;130.77;;
62102;SDS011;48077;48.104;11.702;2023-09-19T10:31:59;170.82;;;130.63;;
62102;SDS011;48077;48.104;11.702;2023-09-19T10:34:24;172.57;;;130.48;;
62102;SDS011;48077;48.104;11.702;2023-09-19T10:36:50;164.25;;;128.02;;
62102;SDS011;48077;48.104;11.702;2023-09-19T10:39:15;167.90;;;129.15;;
62102;SDS011;48077;48.104;11.702;2023-09-19T10:41:42;167.38;;;128.82;;
62102;SDS011;48077;48.104;11.702;2023-09-19T10:44:07;171.63;;;131.30;;
62102;SDS011;48077;48.104;11.702;2023-09-19T10:46:32;170.73;;;130.30;;
62102;SDS011;48077;48.104;11.702;2023-09-19T10:48:58;167.63;;;128.75;;
62102;SDS011;48077;48.104;11.702;2023-09-19T10:51:24;165.10;;;126.93;;
62102;SDS011;48077;48.104;11.702;2023-09-19T10:53:56;154.32;;;122.88;;
62102;SDS011;48077;48.104;11.702;2023-09-19T10:56:26;146.75;;;118.78;;
62102;SDS011;48077;48.104;11.702;2023-09-19T10:59:06;155.35;;;123.13;;
62102;SDS011;48077;48.104;11.702;2023-09-19T11:01:43;151.52;;;121.03;;
62102;SDS011;48077;48.104;11.702;2023-09-19T11:04:20;149.40;;;119.32;;
62102;SDS011;48077;48.104;11.702;2023-09-19T11:07:07;155.23;;;122.53;;
62102;SDS011;48077;48.104;11.702;2023-09-19T11:09:47;149.95;;;121.10;;
62102;SDS011;48077;48.104;11.702;2023-09-19T11:14:58;156.93;;;122.80;;
62102;SDS011;48077;48.104;11.702;2023-09-19T11:17:32;149.85;;;119.55;;
62102;SDS011;48077;48.104;11.702;2023-09-19T11:30:28;148.98;;;117.10;;
62102;SDS011;48077;48.104;11.702;2023-09-19T11:36:02;131.95;;;109.55;;
62102;SDS011;48077;48.104;11.702;2023-09-19T11:43:42;117.55;;;101.78;;
62102;SDS011;48077;48.104;11.702;2023-09-19T11:46:09;104.13;;;92.82;;
62102;SDS011;48077;48.104;11.702;2023-09-19T11:48:32;100.88;;;90.50;;
62102;SDS011;48077;48.104;11.702;2023-09-19T11:50:58;101.97;;;91.22;;
62102;SDS011;48077;48.104;11.702;2023-09-19T11:53:22;102.13;;;91.32;;
62102;SDS011;48077;48.104;11.702;2023-09-19T11:55:46;98.22;;;88.03;;
62102;SDS011;48077;48.104;11.702;2023-09-19T11:58:09;98.18;;;88.13;;
62102;SDS011;48077;48.104;11.702;2023-09-19T12:00:33;97.30;;;87.47;;
62102;SDS011;48077;48.104;11.702;2023-09-19T12:02:58;91.13;;;82.18;;
62102;SDS011;48077;48.104;11.702;2023-09-19T12:05:30;99.63;;;89.45;;
62102;SDS011;48077;48.104;11.702;2023-09-19T12:07:56;92.68;;;83.28;;
62102;SDS011;48077;48.104;11.702;2023-09-19T12:10:20;96.65;;;86.97;;
62102;SDS011;48077;48.104;11.702;2023-09-19T12:12:49;90.82;;;81.88;;
62102;SDS011;48077;48.104;11.702;2023-09-19T12:15:12;91.78;;;82.78;;
62102;SDS011;48077;48.104;11.702;2023-09-19T12:19:59;91.10;;;82.07;;
62102;SDS011;48077;48.104;11.702;2023-09-19T12:22:23;95.93;;;86.25;;
62102;SDS011;48077;48.104;11.702;2023-09-19T12:24:48;96.70;;;86.82;;
62102;SDS011;48077;48.104;11.702;2023-09-19T12:27:13;103.65;;;92.65;;
62102;SDS011;48077;48.104;11.702;2023-09-19T12:32:06;107.97;;;96.45;;
62102;SDS011;48077;48.104;11.702;2023-09-19T12:34:30;118.45;;;102.88;;
62102;SDS011;48077;48.104;11.702;2023-09-19T12:37:30;110.28;;;98.43;;
62102;SDS011;48077;48.104;11.702;2023-09-19T12:39:53;110.53;;;98.72;;
62102;SDS011;48077;48.104;11.702;2023-09-19T12:42:40;108.35;;;96.90;;
62102;SDS011;48077;48.104;11.702;2023-09-19T12:45:04;100.95;;;90.68;;
62102;SDS011;48077;48.104;11.702;2023-09-19T12:47:32;100.43;;;90.03;;
62102;SDS011;48077;48.104;11.702;2023-09-19T12:52:45;97.40;;;87.63;;
62102;SDS011;48077;48.104;11.702;2023-09-19T13:00:36;103.40;;;92.72;;
62102;SDS011;48077;48.104;11.702;2023-09-19T13:05:51;99.07;;;88.90;;
62102;SDS011;48077;48.104;11.702;2023-09-19T13:08:20;99.25;;;89.18;;
62102;SDS011;48077;48.104;11.702;2023-09-19T13:13:36;97.22;;;87.35;;
62102;SDS011;48077;48.104;11.702;2023-09-19T13:16:01;94.05;;;84.70;;
62102;SDS011;48077;48.104;11.702;2023-09-19T13:18:25;89.45;;;80.80;;
62102;SDS011;48077;48.104;11.702;2023-09-19T13:21:08;87.50;;;78.93;;
62102;SDS011;48077;48.104;11.702;2023-09-19T13:23:45;86.68;;;78.20;;
62102;SDS011;48077;48.104;11.702;2023-09-19T13:26:08;82.38;;;74.53;;
62102;SDS011;48077;48.104;11.702;2023-09-19T13:28:33;83.50;;;75.60;;
62102;SDS011;48077;48.104;11.702;2023-09-19T13:30:57;79.28;;;71.82;;
62102;SDS011;48077;48.104;11.702;2023-09-19T13:33:20;77.15;;;69.97;;
62102;SDS011;48077;48.104;11.702;2023-09-19T13:35:44;81.18;;;73.43;;
62102;SDS011;48077;48.104;11.702;2023-09-19T13:38:07;78.60;;;71.07;;
62102;SDS011;48077;48.104;11.702;2023-09-19T13:40:34;75.30;;;68.30;;
62102;SDS011;48077;48.104;11.702;2023-09-19T13:42:58;72.10;;;65.55;;
62102;SDS011;48077;48.104;11.702;2023-09-19T13:45:21;65.25;;;59.40;;
62102;SDS011;48077;48.104;11.702;2023-09-19T13:47:47;66.78;;;60.63;;
62102;SDS011;48077;48.104;11.702;2023-09-19T13:50:10;67.43;;;61.28;;
62102;SDS011;48077;48.104;11.702;2023-09-19T13:52:34;72.78;;;65.68;;
62102;SDS011;48077;48.104;11.702;2023-09-19T13:54:58;69.20;;;63.08;;
62102;SDS011;48077;48.104;11.702;2023-09-19T13:57:22;68.28;;;62.05;;
62102;SDS011;48077;48.104;11.702;2023-09-19T13:59:46;66.15;;;60.25;;
62102;SDS011;48077;48.104;11.702;2023-09-19T14:02:09;70.45;;;63.92;;
62102;SDS011;48077;48.104;11.702;2023-09-19T14:04:32;61.70;;;56.33;;
62102;SDS011;48077;48.104;11.702;2023-09-19T14:06:57;67.80;;;61.80;;
62102;SDS011;48077;48.104;11.702;2023-09-19T14:09:23;63.65;;;57.75;;
62102;SDS011;48077;48.104;11.702;2023-09-19T14:11:47;63.85;;;58.10;;
62102;SDS011;48077;48.104;11.702;2023-09-19T14:14:11;66.65;;;60.47;;
62102;SDS011;48077;48.104;11.702;2023-09-19T14:16:34;62.65;;;56.92;;
62102;SDS011;48077;48.104;11.702;2023-09-19T14:18:57;66.85;;;61.05;;
62102;SDS011;48077;48.104;11.702;2023-09-19T14:21:21;74.30;;;67.35;;
62102;SDS011;48077;48.104;11.702;2023-09-19T14:23:44;74.07;;;67.15;;
62102;SDS011;48077;48.104;11.702;2023-09-19T14:26:08;81.68;;;73.47;;
62102;SDS011;48077;48.104;11.702;2023-09-19T14:28:32;82.10;;;74.32;;
62102;SDS011;48077;48.104;11.702;2023-09-19T14:31:06;81.70;;;73.97;;
62102;SDS011;48077;48.104;11.702;2023-09-19T14:33:30;80.72;;;73.10;;
62102;SDS011;48077;48.104;11.702;2023-09-19T14:35:54;87.80;;;79.40;;
62102;SDS011;48077;48.104;11.702;2023-09-19T14:38:17;98.70;;;88.55;;
62102;SDS011;48077;48.104;11.702;2023-09-19T14:40:41;98.55;;;88.63;;
62102;SDS011;48077;48.104;11.702;2023-09-19T14:43:05;102.22;;;91.57;;
62102;SDS011;48077;48.104;11.702;2023-09-19T14:45:31;99.05;;;88.90;;